»·PEaware :: N8SR KVGT-KLGB

N8SR :: KVGT-KLGB

FLIGHT INFORMATION

Flight Status: Arrived
Operator: Privately registered:
United States
More flights under this callsign
Pilot: Jim C. (23814)
Aircraft: Unknown
(P28U)
More flights by this aircraft type
Origin: KVGT North Las Vegas
United States
Destination: KLGB Long Beach
United States
More flights between these airports :: More routes between these airports
Route: +NOTWN5 LAS V538 GFS V210 HEC V442 PDZ PDZ270 DOWDD V394 SLI
File this flight plan on PilotEdge
Remarks: +CW / REQUEST GUNEY ILS OR LOC RWY 30
Altitude:
(Current/Filed)
11,000ft
Speed:
(Current/Filed)
150kts
Departed: 15-Jan-20 09:29 PM
Arrived: 15-Jan-20 11:23 PM
Distance/Time
Traveled:
205nm/1:53
Distance/Time
To Go:
Arrived

Flight Plot

Page will automatically refresh every two minutes.


Map Options




Map Legend


Flown Route
Filed Route
Departure Airport
Arrival Airport
Navaid (VOR, NDB)
Fix

Horizontal Profiles

Position Reports

Time Latitude Longitude Heading Altitude Ground
Speed
15-Jan-20 20:43 36.210408 -115.199889 173 2208ft 0kts
15-Jan-20 20:44 36.210408 -115.199889 173 2208ft 0kts
15-Jan-20 20:45 36.210408 -115.199889 173 2208ft 0kts
15-Jan-20 20:46 36.210408 -115.199889 173 2208ft 0kts
15-Jan-20 20:47 36.210408 -115.199889 173 2208ft 0kts
15-Jan-20 20:48 36.210408 -115.199889 173 2208ft 0kts
15-Jan-20 20:49 36.210408 -115.199889 173 2208ft 0kts
15-Jan-20 20:50 36.210408 -115.199889 173 2208ft 0kts
15-Jan-20 20:51 36.210408 -115.199889 173 2208ft 0kts
15-Jan-20 20:52 36.210408 -115.199889 173 2208ft 0kts
15-Jan-20 20:53 36.210408 -115.199889 173 2208ft 0kts
15-Jan-20 20:54 36.210408 -115.199889 173 2208ft 0kts
15-Jan-20 20:55 36.210408 -115.199889 173 2208ft 0kts
15-Jan-20 20:56 36.210408 -115.199889 173 2208ft 0kts
15-Jan-20 20:57 36.210408 -115.199889 173 2208ft 0kts
15-Jan-20 20:58 36.210408 -115.199889 173 2208ft 0kts
15-Jan-20 20:59 36.210408 -115.199889 173 2208ft 0kts
15-Jan-20 21:00 36.210408 -115.199889 173 2208ft 0kts
15-Jan-20 21:01 36.210408 -115.199889 173 2208ft 0kts
15-Jan-20 21:02 36.210408 -115.199889 173 2208ft 0kts
15-Jan-20 21:03 36.210408 -115.199889 173 2208ft 0kts
15-Jan-20 21:04 36.210408 -115.199889 173 2208ft 0kts
15-Jan-20 21:05 36.210408 -115.199889 173 2208ft 0kts
15-Jan-20 21:06 36.210408 -115.199889 173 2208ft 0kts
15-Jan-20 21:07 36.210408 -115.199889 173 2208ft 0kts
15-Jan-20 21:08 36.210408 -115.199889 173 2208ft 0kts
15-Jan-20 21:09 36.210408 -115.199889 173 2208ft 0kts
15-Jan-20 21:10 36.210408 -115.199889 173 2208ft 0kts
15-Jan-20 21:11 36.210408 -115.199889 173 2208ft 0kts
15-Jan-20 21:12 36.210408 -115.199889 173 2208ft 0kts
15-Jan-20 21:13 36.210408 -115.199889 173 2208ft 0kts
15-Jan-20 21:14 36.210408 -115.199889 173 2208ft 0kts
15-Jan-20 21:15 36.210408 -115.199889 173 2208ft 0kts
15-Jan-20 21:16 36.210408 -115.199889 173 2208ft 0kts
15-Jan-20 21:17 36.210408 -115.199889 173 2208ft 0kts
15-Jan-20 21:18 36.210260 -115.199768 100 2208ft 0kts
15-Jan-20 21:19 36.210260 -115.199768 100 2208ft 0kts
15-Jan-20 21:20 36.210260 -115.199768 100 2208ft 0kts
15-Jan-20 21:21 36.210260 -115.199768 100 2208ft 0kts
15-Jan-20 21:22 36.210260 -115.199768 100 2208ft 0kts
15-Jan-20 21:23 36.210778 -115.199599 326 2208ft 5kts
15-Jan-20 21:24 36.212262 -115.201296 6 2208ft 9kts
15-Jan-20 21:25 36.212868 -115.203324 351 2208ft 0kts
15-Jan-20 21:26 36.212882 -115.203325 356 2208ft 0kts
15-Jan-20 21:27 36.214501 -115.202449 128 2208ft 0kts
15-Jan-20 21:28 36.201858 -115.185958 143 2779ft 87kts
15-Jan-20 21:29 36.189184 -115.203311 263 3842ft 89kts
15-Jan-20 21:30 36.186831 -115.233325 273 4871ft 84kts
15-Jan-20 21:31 36.207344 -115.256578 326 5495ft 112kts
15-Jan-20 21:32 36.234433 -115.277821 327 5971ft 128kts
15-Jan-20 21:33 36.252256 -115.263636 125 6613ft 122kts
15-Jan-20 21:34 36.222783 -115.244031 150 7090ft 124kts
15-Jan-20 21:35 36.192738 -115.224938 154 7686ft 115kts
15-Jan-20 21:36 36.164298 -115.208727 155 8381ft 111kts
15-Jan-20 21:37 36.136567 -115.192616 154 9079ft 110kts
15-Jan-20 21:38 36.109083 -115.176759 154 9778ft 108kts
15-Jan-20 21:39 36.077201 -115.160944 175 9964ft 141kts
15-Jan-20 21:40 36.036698 -115.160727 180 9963ft 148kts
15-Jan-20 21:41 35.995481 -115.161342 180 9963ft 148kts
15-Jan-20 21:42 35.954292 -115.162067 180 9963ft 148kts
15-Jan-20 21:43 35.913030 -115.162814 180 9963ft 148kts
15-Jan-20 21:44 35.871842 -115.163563 180 9963ft 148kts
15-Jan-20 21:45 35.830808 -115.164298 180 10049ft 142kts
15-Jan-20 21:46 35.794303 -115.164928 180 10736ft 125kts
15-Jan-20 21:47 35.760123 -115.165531 180 11433ft 121kts
15-Jan-20 21:48 35.726030 -115.166153 180 11963ft 132kts
15-Jan-20 21:49 35.686409 -115.167007 180 11988ft 145kts
15-Jan-20 21:50 35.645307 -115.167811 180 12000ft 149kts
15-Jan-20 21:51 35.603777 -115.168589 180 12000ft 149kts
15-Jan-20 21:52 35.562337 -115.169353 180 12000ft 150kts
15-Jan-20 21:53 35.520372 -115.170126 180 12000ft 151kts
15-Jan-20 21:54 35.478509 -115.170895 180 12000ft 151kts
15-Jan-20 21:55 35.436565 -115.171665 180 12000ft 151kts
15-Jan-20 21:56 35.394640 -115.172436 180 12000ft 151kts
15-Jan-20 21:57 35.352673 -115.173219 180 12000ft 151kts
15-Jan-20 21:58 35.310740 -115.173949 180 12000ft 151kts
15-Jan-20 21:59 35.268676 -115.174729 180 12000ft 151kts
15-Jan-20 22:00 35.226839 -115.175496 180 12000ft 151kts
15-Jan-20 22:01 35.184796 -115.176262 180 12000ft 151kts
15-Jan-20 22:02 35.142964 -115.177361 190 11992ft 151kts
15-Jan-20 22:03 35.122076 -115.219895 250 11999ft 151kts
15-Jan-20 22:04 35.108581 -115.269493 252 12000ft 158kts
15-Jan-20 22:05 35.095309 -115.321207 252 12000ft 160kts
15-Jan-20 22:06 35.082030 -115.373292 252 12000ft 160kts
15-Jan-20 22:07 35.068746 -115.425371 252 12000ft 160kts
15-Jan-20 22:08 35.055500 -115.477215 252 12000ft 160kts
15-Jan-20 22:09 35.042185 -115.529225 252 12000ft 160kts
15-Jan-20 22:10 35.028863 -115.581156 252 12000ft 160kts
15-Jan-20 22:11 35.015540 -115.632994 252 12000ft 160kts
15-Jan-20 22:12 35.002174 -115.684884 252 12000ft 160kts
15-Jan-20 22:13 34.988782 -115.736778 252 12000ft 160kts
15-Jan-20 22:14 34.975410 -115.788495 252 12000ft 160kts
15-Jan-20 22:15 34.961982 -115.840328 252 12000ft 160kts
15-Jan-20 22:16 34.948574 -115.891978 252 12000ft 160kts
15-Jan-20 22:17 34.935108 -115.943754 252 12000ft 160kts
15-Jan-20 22:18 34.921638 -115.995440 252 12000ft 160kts
15-Jan-20 22:19 34.908157 -116.047075 252 12000ft 160kts
15-Jan-20 22:20 34.894608 -116.098866 252 12000ft 160kts
15-Jan-20 22:21 34.881086 -116.150450 252 12000ft 160kts
15-Jan-20 22:22 34.867592 -116.201830 252 12000ft 160kts
15-Jan-20 22:23 34.854040 -116.253332 252 12000ft 159kts
15-Jan-20 22:24 34.840459 -116.304840 252 12000ft 159kts
15-Jan-20 22:25 34.826859 -116.356328 252 12000ft 159kts
15-Jan-20 22:26 34.813253 -116.407738 252 12000ft 159kts
15-Jan-20 22:27 34.799541 -116.459172 249 11999ft 160kts
15-Jan-20 22:28 34.782153 -116.508950 246 12000ft 159kts
15-Jan-20 22:29 34.764456 -116.558456 246 12000ft 159kts
15-Jan-20 22:30 34.746700 -116.607957 246 12000ft 159kts
15-Jan-20 22:31 34.728921 -116.657426 246 12000ft 159kts
15-Jan-20 22:32 34.711130 -116.706858 246 12000ft 159kts
15-Jan-20 22:33 34.693314 -116.756274 246 12000ft 159kts
15-Jan-20 22:34 34.675433 -116.805801 246 12000ft 159kts
15-Jan-20 22:35 34.657597 -116.855116 246 12000ft 159kts
15-Jan-20 22:36 34.639677 -116.904590 246 12000ft 159kts
15-Jan-20 22:37 34.620547 -116.953110 245 11999ft 159kts
15-Jan-20 22:39 34.602328 -117.002337 245 12000ft 159kts
15-Jan-20 22:40 34.584340 -117.051638 246 12000ft 159kts
15-Jan-20 22:41 34.566390 -117.100875 246 12000ft 159kts
15-Jan-20 22:42 34.545529 -117.147717 215 11998ft 160kts
15-Jan-20 22:43 34.506936 -117.174448 207 12000ft 159kts
15-Jan-20 22:44 34.467484 -117.198883 206 12000ft 159kts
15-Jan-20 22:45 34.427788 -117.223092 206 12000ft 159kts
15-Jan-20 22:46 34.388138 -117.247197 206 12000ft 159kts
15-Jan-20 22:47 34.346132 -117.272720 206 11400ft 172kts
15-Jan-20 22:48 34.303397 -117.298640 206 10835ft 171kts
15-Jan-20 22:49 34.261051 -117.324286 206 10293ft 170kts
15-Jan-20 22:50 34.219118 -117.349655 206 9707ft 166kts
15-Jan-20 22:51 34.178294 -117.374329 206 8885ft 163kts
15-Jan-20 22:52 34.138285 -117.398468 206 8006ft 153kts
15-Jan-20 22:53 34.101221 -117.420807 206 7002ft 147kts
15-Jan-20 22:54 34.064740 -117.442784 206 6042ft 148kts
15-Jan-20 22:55 34.030835 -117.463166 206 5999ft 130kts
15-Jan-20 22:56 33.998540 -117.482572 206 5999ft 129kts
15-Jan-20 22:56 33.971746 -117.498672 206 6000ft 129kts
15-Jan-20 22:58 33.934172 -117.521237 206 6000ft 129kts
15-Jan-20 22:59 33.923524 -117.555650 283 5999ft 129kts
15-Jan-20 22:59 33.931155 -117.593656 284 5445ft 144kts
15-Jan-20 23:01 33.942280 -117.648649 284 4627ft 144kts
15-Jan-20 23:02 33.952893 -117.695116 285 4010ft 140kts
15-Jan-20 23:02 33.961388 -117.731188 285 3999ft 131kts
15-Jan-20 23:04 33.972972 -117.780123 285 3999ft 130kts
15-Jan-20 23:04 33.980781 -117.815254 269 3993ft 130kts
15-Jan-20 23:05 33.958070 -117.848231 224 4000ft 130kts
15-Jan-20 23:07 33.928092 -117.883940 226 3998ft 130kts
15-Jan-20 23:07 33.901212 -117.895632 183 4000ft 130kts
15-Jan-20 23:08 33.865082 -117.898560 183 4000ft 130kts
15-Jan-20 23:09 33.829044 -117.901516 183 4000ft 130kts
15-Jan-20 23:10 33.792928 -117.904522 183 4000ft 130kts
15-Jan-20 23:11 33.756744 -117.907576 183 4000ft 130kts
15-Jan-20 23:12 33.719942 -117.910741 184 3741ft 141kts
15-Jan-20 23:13 33.681454 -117.914117 184 3048ft 137kts
15-Jan-20 23:14 33.672048 -117.948986 261 2997ft 122kts
15-Jan-20 23:15 33.680724 -117.987190 313 2398ft 115kts
15-Jan-20 23:16 33.704336 -118.010572 316 1998ft 100kts
15-Jan-20 23:17 33.724327 -118.034186 308 1764ft 110kts
15-Jan-20 23:18 33.742457 -118.061712 315 1518ft 98kts
15-Jan-20 23:19 33.762672 -118.083415 313 1520ft 97kts
15-Jan-20 23:20 33.781995 -118.108796 316 1218ft 105kts
15-Jan-20 23:21 33.802511 -118.132981 314 540ft 85kts
15-Jan-20 23:22 33.815916 -118.149122 313 63ft 36kts
15-Jan-20 23:23 33.818542 -118.153634 267 63ft 0kts
15-Jan-20 23:24 33.817971 -118.156596 225 63ft 19kts
15-Jan-20 23:25 33.816250 -118.157818 118 63ft 0kts

Navigation Log

Ident Type
Flight plan parsing failed, navigation log unavailable